createdAt,value
2022-08-26T00:00:00.434Z,4.0
2022-08-26T00:05:00.332Z,3.6
2022-08-26T00:10:00.428Z,2.9
2022-08-26T00:15:00.424Z,5.0
2022-08-26T00:20:00.412Z,2.5
2022-08-26T00:25:00.357Z,2.2
2022-08-26T00:30:01.475Z,2.5
2022-08-26T00:35:00.604Z,5.4
2022-08-26T00:40:05.481Z,2.5
2022-08-26T00:45:00.431Z,4.7
2022-08-26T00:50:00.344Z,5.8
2022-08-26T00:55:00.327Z,3.6
2022-08-26T01:00:00.409Z,4.0
2022-08-26T01:05:00.312Z,2.9
2022-08-26T01:10:00.347Z,4.0
2022-08-26T01:15:00.322Z,3.2
2022-08-26T01:20:01.073Z,4.0
2022-08-26T01:25:00.286Z,4.7
2022-08-26T01:30:00.594Z,4.3
2022-08-26T01:35:00.363Z,3.6
2022-08-26T01:40:00.559Z,4.7
2022-08-26T01:45:00.345Z,4.0
2022-08-26T01:50:00.470Z,4.3
2022-08-26T01:55:00.297Z,4.0
2022-08-26T02:00:00.430Z,5.0
2022-08-26T02:05:00.631Z,3.6
2022-08-26T02:10:00.349Z,3.6
2022-08-26T02:15:00.874Z,3.2
2022-08-26T02:20:00.345Z,4.0
2022-08-26T02:25:00.320Z,3.2
2022-08-26T02:30:01.412Z,3.2
2022-08-26T02:35:00.516Z,1.4
2022-08-26T02:40:00.641Z,3.2
2022-08-26T02:45:00.328Z,1.8
2022-08-26T02:50:00.648Z,1.4
2022-08-26T02:55:00.367Z,2.5
2022-08-26T03:00:01.228Z,1.4
2022-08-26T03:05:02.597Z,2.9
2022-08-26T03:10:00.357Z,3.2
2022-08-26T03:15:00.498Z,4.0
2022-08-26T03:20:00.348Z,3.2
2022-08-26T03:25:00.294Z,4.7
2022-08-26T03:30:01.378Z,4.0
2022-08-26T03:35:00.300Z,4.3
2022-08-26T03:40:00.681Z,3.2
2022-08-26T03:45:00.685Z,2.9
2022-08-26T03:50:00.316Z,4.0
2022-08-26T03:55:00.755Z,3.6
2022-08-26T04:00:00.395Z,4.0
2022-08-26T04:05:00.317Z,2.9
2022-08-26T04:10:00.466Z,2.2
2022-08-26T04:15:00.359Z,4.3
2022-08-26T04:20:00.563Z,5.8
2022-08-26T04:25:00.320Z,2.9
2022-08-26T04:30:00.347Z,5.8
2022-08-26T04:35:01.998Z,5.4
2022-08-26T04:40:00.703Z,4.7
2022-08-26T04:45:00.327Z,4.3
2022-08-26T04:50:02.182Z,6.5
2022-08-26T04:55:00.422Z,5.0
2022-08-26T05:00:00.342Z,4.7
2022-08-26T05:05:00.303Z,5.0
2022-08-26T05:10:00.362Z,4.0
2022-08-26T05:15:00.297Z,4.0
2022-08-26T05:20:00.331Z,3.6
2022-08-26T05:25:00.301Z,1.8
2022-08-26T05:30:01.248Z,0.0
2022-08-26T05:35:00.736Z,2.9
2022-08-26T05:40:00.537Z,1.4
2022-08-26T05:45:00.310Z,6.5
2022-08-26T05:50:00.382Z,4.0
2022-08-26T05:55:00.336Z,4.3
2022-08-26T06:00:01.173Z,6.1
2022-08-26T06:05:00.488Z,10.4
2022-08-26T06:10:31.885Z,4.3
2022-08-26T06:15:04.275Z,4.7
2022-08-26T06:20:01.637Z,2.5
2022-08-26T06:25:01.007Z,5.4
2022-08-26T06:30:00.518Z,4.0
2022-08-26T06:35:01.688Z,5.0
2022-08-26T06:40:00.598Z,4.0
2022-08-26T06:45:00.378Z,6.5
2022-08-26T06:50:00.367Z,6.1
2022-08-26T06:55:00.360Z,6.1
2022-08-26T07:00:00.473Z,5.8
2022-08-26T07:05:00.350Z,4.7
2022-08-26T07:10:01.729Z,6.1
2022-08-26T07:15:00.323Z,5.8
2022-08-26T07:20:00.442Z,7.2
2022-08-26T07:25:00.373Z,2.2
2022-08-26T07:30:02.635Z,5.0
2022-08-26T07:35:00.362Z,3.2
2022-08-26T07:40:01.303Z,6.5
2022-08-26T07:45:00.434Z,3.6
2022-08-26T07:50:00.448Z,4.0
2022-08-26T07:55:00.339Z,3.6
2022-08-26T08:00:00.480Z,4.3
2022-08-26T08:05:00.592Z,0.0
2022-08-26T08:10:00.348Z,1.4
2022-08-26T08:15:00.423Z,6.1
2022-08-26T08:20:00.444Z,0.0
2022-08-26T08:25:08.312Z,4.7
2022-08-26T08:30:00.353Z,9.4
2022-08-26T08:35:00.373Z,7.9
2022-08-26T08:40:00.622Z,8.3
2022-08-26T08:45:00.339Z,10.1
2022-08-26T08:50:00.423Z,6.8
2022-08-26T08:55:00.388Z,7.2
2022-08-26T09:00:00.435Z,7.2
2022-08-26T09:05:00.864Z,3.6
2022-08-26T09:10:00.925Z,11.2
2022-08-26T09:15:00.889Z,6.1
2022-08-26T09:20:00.401Z,8.6
2022-08-26T09:25:00.394Z,7.6
2022-08-26T09:30:00.718Z,7.6
2022-08-26T09:35:00.362Z,6.8
2022-08-26T09:40:00.579Z,6.1
2022-08-26T09:45:00.499Z,9.4
2022-08-26T09:50:00.360Z,7.6
2022-08-26T09:55:00.385Z,6.8
2022-08-26T10:00:00.371Z,5.0
2022-08-26T10:05:09.995Z,10.8
2022-08-26T10:10:00.423Z,8.3
2022-08-26T10:15:00.498Z,4.3
2022-08-26T10:20:00.470Z,8.6
2022-08-26T10:25:03.920Z,9.7
2022-08-26T10:30:00.391Z,4.0
2022-08-26T10:35:00.348Z,5.0
2022-08-26T10:40:00.630Z,6.1
2022-08-26T10:45:00.750Z,15.5
2022-08-26T10:50:03.869Z,15.8
2022-08-26T10:55:03.284Z,6.5
2022-08-26T11:00:00.377Z,10.4
2022-08-26T11:05:01.044Z,5.0
2022-08-26T11:10:00.408Z,0.0
2022-08-26T11:15:00.434Z,1.4
2022-08-26T11:20:09.327Z,18.4
2022-08-26T11:25:00.511Z,19.4
2022-08-26T11:30:00.378Z,13.3
2022-08-26T11:35:00.670Z,15.1
2022-08-26T11:40:03.102Z,12.2
2022-08-26T11:45:05.957Z,15.5
2022-08-26T11:50:00.335Z,20.5
2022-08-26T11:55:00.299Z,9.4
2022-08-26T12:00:00.461Z,12.6
2022-08-26T12:05:00.532Z,17.6
2022-08-26T12:10:02.470Z,9.4
2022-08-26T12:15:00.281Z,9.4
2022-08-26T12:20:01.825Z,13.7
2022-08-26T12:25:00.382Z,9.4
2022-08-26T12:30:01.716Z,4.7
2022-08-26T12:35:01.169Z,5.4
2022-08-26T12:40:00.528Z,4.3
2022-08-26T12:45:00.305Z,2.5
2022-08-26T12:50:00.446Z,4.7
2022-08-26T12:55:00.309Z,11.2
2022-08-26T13:00:00.346Z,0.0
2022-08-26T13:05:01.225Z,0.0
2022-08-26T13:10:00.349Z,5.8
2022-08-26T13:15:00.370Z,5.0
2022-08-26T13:20:04.900Z,6.1
2022-08-26T13:25:00.365Z,5.4
2022-08-26T13:30:00.448Z,5.8
2022-08-26T13:35:06.159Z,5.0
2022-08-26T13:40:01.175Z,0.0
2022-08-26T13:45:00.327Z,1.4
2022-08-26T13:50:00.384Z,5.8
2022-08-26T13:55:00.929Z,1.8
2022-08-26T14:00:00.405Z,0.0
2022-08-26T14:05:00.319Z,2.2
2022-08-26T14:10:00.344Z,8.3
2022-08-26T14:15:00.324Z,3.2
2022-08-26T14:20:00.361Z,1.8
2022-08-26T14:25:00.306Z,2.5
2022-08-26T14:30:00.331Z,3.6
2022-08-26T14:35:00.280Z,2.2
2022-08-26T14:40:00.568Z,2.9
2022-08-26T14:45:00.325Z,0.0
2022-08-26T14:50:00.383Z,0.0
2022-08-26T14:55:00.310Z,0.0
2022-08-26T15:00:00.344Z,6.1
2022-08-26T15:05:00.314Z,4.0
2022-08-26T15:10:00.315Z,4.3
2022-08-26T15:15:00.286Z,0.0
2022-08-26T15:20:00.414Z,2.5
2022-08-26T15:25:00.264Z,1.8
2022-08-26T15:30:00.337Z,4.0
2022-08-26T15:35:00.293Z,3.2
2022-08-26T15:40:00.608Z,2.2
2022-08-26T15:45:00.303Z,7.9
2022-08-26T15:50:00.338Z,3.2
2022-08-26T15:55:01.187Z,4.0
2022-08-26T16:00:00.341Z,6.1
2022-08-26T16:05:00.372Z,5.4
2022-08-26T16:10:00.427Z,6.5
2022-08-26T16:15:00.336Z,5.4
2022-08-26T16:20:00.385Z,5.8
2022-08-26T16:25:00.267Z,2.9
2022-08-26T16:30:00.653Z,2.5
2022-08-26T16:35:00.318Z,3.6
2022-08-26T16:40:00.908Z,3.6
2022-08-26T16:45:00.278Z,0.0
2022-08-26T16:50:00.486Z,0.0
2022-08-26T16:55:00.264Z,0.0
2022-08-26T17:00:00.405Z,0.0
2022-08-26T17:05:00.281Z,2.2
2022-08-26T17:10:00.356Z,2.5
2022-08-26T17:15:00.335Z,1.4
2022-08-26T17:20:00.373Z,0.0
2022-08-26T17:25:00.327Z,3.2
2022-08-26T17:30:00.401Z,0.0
2022-08-26T17:35:00.344Z,0.0
2022-08-26T17:40:00.615Z,2.9
2022-08-26T17:45:00.334Z,2.9
2022-08-26T17:50:00.634Z,0.0
2022-08-26T17:55:00.335Z,0.0
2022-08-26T18:00:00.864Z,0.0
2022-08-26T18:05:00.834Z,2.2
2022-08-26T18:10:00.348Z,0.0
2022-08-26T18:15:00.309Z,1.4
2022-08-26T18:20:00.456Z,0.0
2022-08-26T18:25:00.349Z,0.0
2022-08-26T18:30:00.375Z,0.0
2022-08-26T18:35:00.496Z,0.0
2022-08-26T18:40:00.609Z,0.0
2022-08-26T18:45:00.384Z,0.0
2022-08-26T18:50:00.471Z,1.8
2022-08-26T18:55:00.302Z,2.5
2022-08-26T19:00:00.361Z,0.0
2022-08-26T19:05:00.408Z,0.0
2022-08-26T19:10:05.421Z,0.0
2022-08-26T19:15:00.667Z,2.5
2022-08-26T19:20:00.455Z,1.8
2022-08-26T19:25:00.366Z,0.0
2022-08-26T19:30:00.382Z,0.0
2022-08-26T19:35:00.333Z,0.0
2022-08-26T19:40:00.662Z,0.0
2022-08-26T19:45:00.602Z,1.4
2022-08-26T19:50:03.399Z,0.0
2022-08-26T19:55:00.363Z,0.0
2022-08-26T20:00:00.447Z,0.0
2022-08-26T20:05:00.313Z,0.0
2022-08-26T20:10:00.364Z,0.0
2022-08-26T20:15:00.317Z,0.0
2022-08-26T20:20:00.393Z,0.0
2022-08-26T20:25:00.363Z,0.0
2022-08-26T20:30:00.387Z,0.0
2022-08-26T20:35:00.347Z,0.0
2022-08-26T20:40:00.638Z,0.0
2022-08-26T20:45:00.347Z,0.0
2022-08-26T20:50:00.341Z,4.0
2022-08-26T20:55:00.364Z,2.5
2022-08-26T21:00:00.429Z,3.6
2022-08-26T21:05:00.688Z,0.0
2022-08-26T21:10:00.372Z,4.0
2022-08-26T21:15:00.388Z,0.0
2022-08-26T21:20:00.384Z,1.8
2022-08-26T21:25:00.336Z,0.0
2022-08-26T21:30:00.421Z,0.0
2022-08-26T21:35:00.327Z,0.0
2022-08-26T21:40:00.682Z,0.0
2022-08-26T21:45:00.340Z,0.0
2022-08-26T21:50:00.350Z,1.8
2022-08-26T21:55:00.427Z,0.0
2022-08-26T22:00:05.001Z,0.0
2022-08-26T22:05:00.285Z,0.0
2022-08-26T22:10:00.334Z,0.0
2022-08-26T22:15:00.416Z,0.0
2022-08-26T22:20:00.428Z,0.0
2022-08-26T22:25:00.350Z,0.0
2022-08-26T22:30:00.358Z,0.0
2022-08-26T22:35:00.304Z,0.0
2022-08-26T22:40:00.632Z,0.0
2022-08-26T22:45:00.343Z,0.0
2022-08-26T22:50:00.335Z,0.0
2022-08-26T22:55:00.325Z,0.0
2022-08-26T23:00:00.350Z,0.0
2022-08-26T23:05:00.292Z,0.0
2022-08-26T23:10:00.346Z,0.0
2022-08-26T23:15:00.270Z,0.0
2022-08-26T23:20:00.350Z,0.0
2022-08-26T23:25:00.278Z,0.0
2022-08-26T23:30:00.378Z,2.2
2022-08-26T23:35:00.621Z,2.2
2022-08-26T23:40:01.614Z,5.0
2022-08-26T23:45:00.287Z,4.3
2022-08-26T23:50:00.334Z,0.0
2022-08-26T23:55:00.305Z,0.0
